createdAt,value
2018-03-26T00:00:22.993Z,89.17
2018-03-26T00:02:50.533Z,92.33
2018-03-26T00:05:18.096Z,104.03
2018-03-26T00:07:45.772Z,111.23
2018-03-26T00:10:13.370Z,80.00
2018-03-26T00:12:40.905Z,92.63
2018-03-26T00:15:08.498Z,100.20
2018-03-26T00:17:36.084Z,85.20
2018-03-26T00:20:04.425Z,92.10
2018-03-26T00:22:31.964Z,90.20
2018-03-26T00:24:59.521Z,90.93
2018-03-26T00:27:27.062Z,95.27
2018-03-26T00:29:54.629Z,88.67
2018-03-26T00:32:22.218Z,90.27
2018-03-26T00:34:49.792Z,88.30
2018-03-26T00:37:17.507Z,86.90
2018-03-26T00:39:45.087Z,97.57
2018-03-26T00:42:12.702Z,107.70
2018-03-26T00:44:40.763Z,86.87
2018-03-26T00:47:09.082Z,98.43
2018-03-26T00:49:36.698Z,92.67
2018-03-26T00:52:05.249Z,97.20
2018-03-26T00:54:33.044Z,93.97
2018-03-26T00:57:01.702Z,93.60
2018-03-26T00:59:29.248Z,88.77
2018-03-26T01:01:56.808Z,99.07
2018-03-26T01:04:24.359Z,95.80
2018-03-26T01:06:51.927Z,100.80
2018-03-26T01:09:19.469Z,101.20
2018-03-26T01:11:47.081Z,100.03
2018-03-26T01:14:15.397Z,96.50
2018-03-26T01:16:43.151Z,97.77
2018-03-26T01:19:10.705Z,96.50
2018-03-26T01:21:38.285Z,88.53
2018-03-26T01:24:05.830Z,95.73
2018-03-26T01:26:33.411Z,104.00
2018-03-26T01:29:01.195Z,91.27
2018-03-26T01:31:28.776Z,97.50
2018-03-26T01:33:56.339Z,107.80
2018-03-26T01:36:24.134Z,93.73
2018-03-26T01:38:51.809Z,98.00
2018-03-26T01:41:19.400Z,97.23
2018-03-26T01:43:47.002Z,98.70
2018-03-26T01:46:14.638Z,94.53
2018-03-26T01:48:42.206Z,94.30
2018-03-26T01:51:09.761Z,91.90
2018-03-26T01:53:37.350Z,98.53
2018-03-26T01:56:05.686Z,102.50
2018-03-26T01:58:33.269Z,102.27
2018-03-26T02:01:00.810Z,93.10
2018-03-26T02:03:28.386Z,95.43
2018-03-26T02:05:55.922Z,92.80
2018-03-26T02:08:23.491Z,89.20
2018-03-26T02:10:51.034Z,99.70
2018-03-26T02:13:18.622Z,104.20
2018-03-26T02:15:46.934Z,96.77
2018-03-26T02:18:14.671Z,104.87
2018-03-26T02:20:42.227Z,102.90
2018-03-26T02:23:10.561Z,93.93
2018-03-26T02:25:38.092Z,94.47
2018-03-26T02:28:05.663Z,117.80
2018-03-26T02:30:33.202Z,143.50
2018-03-26T02:33:00.758Z,96.17
2018-03-26T02:35:28.301Z,96.50
2018-03-26T02:37:57.260Z,112.93
2018-03-26T02:40:24.962Z,100.30
2018-03-26T02:42:53.280Z,95.07
2018-03-26T02:45:20.865Z,103.80
2018-03-26T02:47:48.413Z,93.57
2018-03-26T02:50:16.009Z,93.60
2018-03-26T02:52:44.315Z,99.63
2018-03-26T02:55:11.893Z,103.97
2018-03-26T02:57:39.557Z,88.83
2018-03-26T03:00:07.132Z,96.87
2018-03-26T03:02:34.877Z,98.80
2018-03-26T03:05:02.460Z,113.07
2018-03-26T03:07:29.992Z,88.60
2018-03-26T03:09:57.559Z,101.43
2018-03-26T03:12:25.101Z,92.90
2018-03-26T03:14:52.697Z,104.77
2018-03-26T03:17:20.238Z,93.30
2018-03-26T03:19:47.822Z,110.47
2018-03-26T03:22:15.360Z,91.63
2018-03-26T03:24:43.011Z,106.37
2018-03-26T03:27:10.553Z,91.40
2018-03-26T03:29:38.133Z,106.03
2018-03-26T03:32:05.701Z,98.07
2018-03-26T03:34:33.296Z,113.43
2018-03-26T03:37:00.858Z,112.43
2018-03-26T03:39:28.397Z,93.53
2018-03-26T03:41:55.981Z,103.73
2018-03-26T03:44:23.529Z,105.97
2018-03-26T03:46:51.096Z,100.43
2018-03-26T03:49:18.640Z,101.67
2018-03-26T03:51:47.512Z,97.40
2018-03-26T03:54:15.045Z,96.57
2018-03-26T03:56:43.037Z,100.30
2018-03-26T03:59:11.210Z,98.40
2018-03-26T04:01:38.972Z,100.80
2018-03-26T04:04:07.269Z,92.47
2018-03-26T04:06:35.013Z,102.87
2018-03-26T04:09:02.560Z,108.43
2018-03-26T04:11:30.160Z,96.67
2018-03-26T04:13:57.731Z,102.87
2018-03-26T04:16:25.526Z,110.87
2018-03-26T04:18:53.827Z,93.53
2018-03-26T04:21:21.537Z,97.83
2018-03-26T04:23:49.337Z,104.67
2018-03-26T04:26:17.162Z,88.23
2018-03-26T04:28:44.702Z,99.77
2018-03-26T04:31:12.240Z,105.63
2018-03-26T04:33:39.799Z,98.73
2018-03-26T04:36:07.374Z,95.50
2018-03-26T04:38:34.957Z,104.60
2018-03-26T04:41:02.498Z,115.70
2018-03-26T04:43:30.575Z,149.33
2018-03-26T04:45:58.108Z,126.40
2018-03-26T04:48:25.676Z,130.87
2018-03-26T04:50:53.230Z,135.87
2018-03-26T04:53:21.712Z,117.93
2018-03-26T04:55:49.414Z,118.83
2018-03-26T04:58:16.987Z,115.00
2018-03-26T05:00:45.174Z,128.97
2018-03-26T05:03:12.732Z,116.10
2018-03-26T05:05:41.044Z,113.30
2018-03-26T05:08:08.625Z,109.30
2018-03-26T05:10:36.172Z,108.70
2018-03-26T05:13:03.752Z,112.83
2018-03-26T05:15:31.315Z,124.13
2018-03-26T05:17:58.886Z,109.10
2018-03-26T05:20:26.430Z,128.70
2018-03-26T05:22:54.006Z,116.80
2018-03-26T05:25:21.585Z,110.40
2018-03-26T05:27:49.114Z,120.63
2018-03-26T05:30:16.684Z,107.27
2018-03-26T05:32:44.257Z,103.23
2018-03-26T05:35:12.592Z,100.90
2018-03-26T05:37:40.492Z,109.40
2018-03-26T05:40:08.088Z,106.70
2018-03-26T05:42:36.529Z,124.57
2018-03-26T05:45:04.224Z,126.63
2018-03-26T05:47:31.774Z,108.70
2018-03-26T05:49:59.537Z,120.07
2018-03-26T05:52:27.870Z,107.00
2018-03-26T05:54:55.446Z,110.30
2018-03-26T05:57:22.985Z,112.77
2018-03-26T05:59:50.559Z,119.33
2018-03-26T06:02:18.083Z,111.17
2018-03-26T06:04:45.649Z,118.27
2018-03-26T06:07:13.204Z,118.97
2018-03-26T06:09:40.810Z,113.03
2018-03-26T06:12:08.358Z,106.27
2018-03-26T06:14:36.905Z,105.60
2018-03-26T06:17:13.699Z,121.50
2018-03-26T06:19:41.439Z,114.60
2018-03-26T06:22:09.107Z,103.30
2018-03-26T06:24:36.632Z,107.00
2018-03-26T06:27:05.043Z,110.60
2018-03-26T06:29:32.577Z,107.93
2018-03-26T06:32:01.075Z,106.00
2018-03-26T06:34:28.622Z,105.23
2018-03-26T06:37:13.120Z,124.93
2018-03-26T06:39:40.684Z,116.23
2018-03-26T06:42:08.252Z,112.23
2018-03-26T06:44:35.925Z,119.90
2018-03-26T06:47:03.502Z,131.27
2018-03-26T06:49:31.067Z,139.17
2018-03-26T06:51:59.401Z,146.13
2018-03-26T06:54:26.952Z,143.40
2018-03-26T06:56:54.532Z,139.40
2018-03-26T06:59:22.069Z,146.97
2018-03-26T07:01:49.638Z,136.13
2018-03-26T07:04:17.185Z,133.70
2018-03-26T07:06:45.046Z,138.10
2018-03-26T07:09:12.597Z,152.17
2018-03-26T07:11:40.207Z,165.33
2018-03-26T07:14:07.982Z,127.87
2018-03-26T07:16:35.564Z,139.47
2018-03-26T07:19:03.154Z,151.70
2018-03-26T07:21:30.706Z,141.60
2018-03-26T07:23:58.286Z,132.10
2018-03-26T07:26:26.604Z,124.73
2018-03-26T07:28:55.002Z,125.30
2018-03-26T07:31:22.500Z,146.80
2018-03-26T07:33:50.138Z,142.03
2018-03-26T07:36:17.677Z,115.80
2018-03-26T07:38:45.246Z,116.73
2018-03-26T07:41:12.806Z,133.20
2018-03-26T07:43:40.400Z,116.40
2018-03-26T07:46:07.951Z,136.50
2018-03-26T07:48:35.520Z,126.63
2018-03-26T07:51:03.077Z,104.67
2018-03-26T07:53:30.636Z,98.77
2018-03-26T07:55:58.180Z,104.07
2018-03-26T07:58:25.742Z,102.47
2018-03-26T08:00:53.284Z,102.43
2018-03-26T08:03:21.922Z,110.43
2018-03-26T08:05:49.481Z,121.23
2018-03-26T08:08:17.785Z,111.07
2018-03-26T08:10:45.352Z,110.17
2018-03-26T08:13:12.921Z,106.97
2018-03-26T08:15:40.487Z,106.30
2018-03-26T08:18:08.029Z,116.67
2018-03-26T08:20:35.598Z,108.33
2018-03-26T08:23:03.143Z,104.60
2018-03-26T08:25:30.700Z,99.33
2018-03-26T08:27:59.014Z,109.73
2018-03-26T08:30:26.600Z,117.60
2018-03-26T08:32:54.162Z,96.00
2018-03-26T08:35:21.738Z,99.53
2018-03-26T08:37:49.278Z,111.13
2018-03-26T08:40:16.848Z,101.57
2018-03-26T08:42:44.396Z,93.40
2018-03-26T08:45:11.952Z,84.33
2018-03-26T08:47:39.489Z,97.80
2018-03-26T08:50:07.135Z,89.73
2018-03-26T08:52:34.682Z,103.70
2018-03-26T08:55:02.373Z,88.73
2018-03-26T08:57:30.043Z,93.93
2018-03-26T08:59:57.603Z,83.80
2018-03-26T09:02:25.156Z,92.87
2018-03-26T09:04:52.751Z,93.20
2018-03-26T09:07:20.404Z,86.43
2018-03-26T09:09:48.174Z,91.30
2018-03-26T09:12:15.818Z,77.93
2018-03-26T09:14:43.428Z,67.63
2018-03-26T09:17:10.958Z,75.40
2018-03-26T09:19:38.489Z,68.33
2018-03-26T09:22:06.163Z,67.60
2018-03-26T09:24:33.757Z,72.67
2018-03-26T09:27:02.095Z,64.10
2018-03-26T09:29:29.714Z,58.47
2018-03-26T09:31:57.300Z,72.13
2018-03-26T09:34:24.970Z,65.70
2018-03-26T09:36:52.542Z,56.37
2018-03-26T09:39:20.083Z,64.13
2018-03-26T09:41:47.757Z,63.53
2018-03-26T09:44:15.392Z,60.03
2018-03-26T09:46:43.141Z,61.50
2018-03-26T09:49:10.692Z,60.40
2018-03-26T09:51:38.239Z,67.33
2018-03-26T09:54:06.566Z,63.60
2018-03-26T09:56:34.121Z,66.47
2018-03-26T09:59:01.689Z,66.83
2018-03-26T10:01:32.153Z,75.00
2018-03-26T10:04:00.497Z,61.70
2018-03-26T10:06:28.101Z,72.93
2018-03-26T10:08:56.515Z,62.67
2018-03-26T10:11:24.074Z,56.57
2018-03-26T10:13:51.726Z,56.27
2018-03-26T10:16:19.675Z,77.97
2018-03-26T10:18:47.266Z,72.53
2018-03-26T10:21:14.814Z,66.03
2018-03-26T10:23:42.475Z,65.63
2018-03-26T10:26:10.874Z,68.03
2018-03-26T10:28:38.452Z,70.20
2018-03-26T10:31:06.074Z,34.30
2018-03-26T10:33:34.133Z,64.03
2018-03-26T10:36:01.714Z,61.20
2018-03-26T10:38:29.336Z,60.30
2018-03-26T10:40:56.838Z,66.00
2018-03-26T10:43:24.404Z,62.90
2018-03-26T10:45:51.978Z,68.43
2018-03-26T10:48:19.534Z,66.93
2018-03-26T10:50:47.329Z,58.20
2018-03-26T10:53:15.104Z,59.73
2018-03-26T10:55:43.526Z,67.30
2018-03-26T10:58:11.080Z,65.67
2018-03-26T11:00:38.709Z,59.17
2018-03-26T11:03:07.189Z,56.80
2018-03-26T11:05:35.718Z,60.70
2018-03-26T11:08:03.262Z,46.53
2018-03-26T11:10:30.834Z,59.83
2018-03-26T11:12:58.383Z,56.47
2018-03-26T11:15:25.966Z,68.13
2018-03-26T11:17:53.571Z,57.43
2018-03-26T11:20:21.941Z,64.60
2018-03-26T11:22:49.485Z,62.10
2018-03-26T11:25:17.069Z,62.20
2018-03-26T11:27:44.623Z,59.03
2018-03-26T11:30:12.954Z,55.53
2018-03-26T11:32:40.702Z,59.50
2018-03-26T11:35:08.278Z,50.87
2018-03-26T11:37:36.141Z,50.70
2018-03-26T11:40:03.752Z,59.73
2018-03-26T11:42:32.074Z,53.07
2018-03-26T11:44:59.667Z,52.90
2018-03-26T11:47:27.779Z,58.23
2018-03-26T11:49:55.321Z,66.50
2018-03-26T11:52:22.889Z,52.97
2018-03-26T11:54:51.200Z,50.00
2018-03-26T11:57:18.755Z,64.20
2018-03-26T11:59:46.313Z,61.10
2018-03-26T12:02:13.876Z,58.40
2018-03-26T12:04:41.428Z,55.50
2018-03-26T12:07:09.018Z,62.63
2018-03-26T12:09:36.553Z,52.00
2018-03-26T12:12:04.092Z,56.13
2018-03-26T12:14:31.671Z,63.17
2018-03-26T12:16:59.304Z,50.73
2018-03-26T12:19:27.598Z,56.00
2018-03-26T12:21:55.166Z,47.70
2018-03-26T12:24:34.403Z,63.47
2018-03-26T12:27:03.337Z,59.63
2018-03-26T12:29:42.815Z,73.73
2018-03-26T12:32:10.595Z,75.53
2018-03-26T12:34:49.978Z,64.53
2018-03-26T12:37:18.412Z,63.97
2018-03-26T12:39:45.960Z,66.70
2018-03-26T12:42:14.297Z,55.70
2018-03-26T12:45:07.497Z,62.27
2018-03-26T12:47:35.064Z,72.90
2018-03-26T12:50:02.617Z,69.97
2018-03-26T12:52:41.188Z,72.17
2018-03-26T12:55:08.746Z,67.43
2018-03-26T12:57:48.112Z,86.40
2018-03-26T13:00:16.432Z,76.10
2018-03-26T13:02:44.002Z,74.13
2018-03-26T13:05:11.650Z,80.73
2018-03-26T13:07:39.217Z,82.27
2018-03-26T13:10:06.763Z,78.20
2018-03-26T13:12:34.341Z,75.47
2018-03-26T13:15:02.642Z,71.50
2018-03-26T13:17:30.254Z,85.63
2018-03-26T13:19:57.836Z,77.17
2018-03-26T13:22:26.353Z,67.40
2018-03-26T13:24:53.964Z,72.97
2018-03-26T13:27:21.606Z,81.03
2018-03-26T13:29:49.236Z,80.07
2018-03-26T13:32:16.834Z,74.53
2018-03-26T13:34:44.438Z,78.13
2018-03-26T13:37:12.017Z,85.10
2018-03-26T13:39:40.389Z,96.57
2018-03-26T13:42:07.986Z,54.33
2018-03-26T13:44:35.617Z,81.77
2018-03-26T13:47:03.187Z,70.70
2018-03-26T13:49:31.521Z,81.57
2018-03-26T13:51:59.088Z,90.43
2018-03-26T13:54:26.657Z,75.63
2018-03-26T13:56:55.814Z,93.50
2018-03-26T13:59:23.379Z,60.10
2018-03-26T14:01:52.451Z,83.83
2018-03-26T14:04:20.067Z,83.73
2018-03-26T14:06:47.692Z,86.77
2018-03-26T14:09:27.130Z,85.90
2018-03-26T14:12:06.635Z,98.53
2018-03-26T14:14:46.857Z,92.47
2018-03-26T14:17:26.109Z,81.30
2018-03-26T14:19:53.927Z,91.43
2018-03-26T14:22:21.494Z,89.57
2018-03-26T14:24:49.133Z,85.10
2018-03-26T14:27:16.710Z,83.10
2018-03-26T14:29:44.265Z,89.13
2018-03-26T14:32:11.828Z,87.73
2018-03-26T14:34:39.367Z,82.87
2018-03-26T14:37:06.942Z,89.80
2018-03-26T14:39:34.468Z,76.40
2018-03-26T14:42:02.804Z,42.77
2018-03-26T14:44:30.347Z,74.17
2018-03-26T14:46:57.998Z,54.87
2018-03-26T14:49:25.609Z,77.23
2018-03-26T14:51:53.181Z,66.27
2018-03-26T14:54:21.600Z,63.13
2018-03-26T14:56:49.172Z,70.57
2018-03-26T14:59:16.736Z,68.07
2018-03-26T15:01:44.297Z,71.60
2018-03-26T15:04:11.853Z,64.17
2018-03-26T15:06:39.421Z,75.80
2018-03-26T15:09:07.196Z,70.50
2018-03-26T15:11:34.833Z,76.97
2018-03-26T15:14:02.386Z,73.60
2018-03-26T15:16:29.986Z,73.37
2018-03-26T15:18:57.560Z,70.90
2018-03-26T15:21:25.264Z,78.73
2018-03-26T15:23:52.858Z,75.73
2018-03-26T15:26:20.472Z,77.47
2018-03-26T15:28:48.150Z,85.40
2018-03-26T15:31:15.769Z,73.57
2018-03-26T15:33:44.175Z,81.30
2018-03-26T15:36:11.754Z,69.07
2018-03-26T15:38:39.334Z,67.17
2018-03-26T15:41:07.045Z,77.13
2018-03-26T15:43:34.673Z,74.20
2018-03-26T15:46:02.323Z,81.70
2018-03-26T15:48:29.906Z,78.83
2018-03-26T15:50:57.578Z,78.03
2018-03-26T15:53:25.363Z,74.83
2018-03-26T15:55:52.951Z,78.60
2018-03-26T15:58:20.548Z,78.70
2018-03-26T16:00:48.140Z,76.73
2018-03-26T16:03:21.548Z,79.20
2018-03-26T16:05:49.168Z,72.70
2018-03-26T16:08:16.733Z,76.40
2018-03-26T16:10:44.316Z,73.07
2018-03-26T16:13:11.972Z,77.20
2018-03-26T16:15:40.307Z,70.87
2018-03-26T16:18:07.849Z,73.43
2018-03-26T16:20:35.433Z,63.17
2018-03-26T16:23:02.984Z,66.83
2018-03-26T16:25:30.586Z,63.63
2018-03-26T16:27:58.272Z,69.17
2018-03-26T16:30:26.000Z,68.67
2018-03-26T16:32:53.676Z,87.53
2018-03-26T16:35:22.019Z,65.90
2018-03-26T16:37:49.584Z,74.40
2018-03-26T16:40:17.175Z,64.67
2018-03-26T16:42:44.920Z,64.23
2018-03-26T16:45:12.535Z,66.27
2018-03-26T16:47:40.100Z,68.50
2018-03-26T16:50:07.795Z,60.23
2018-03-26T16:52:35.406Z,59.73
2018-03-26T16:55:03.033Z,51.67
2018-03-26T16:57:31.400Z,55.10
2018-03-26T16:59:58.953Z,51.77
2018-03-26T17:02:33.201Z,52.03
2018-03-26T17:05:00.768Z,47.50
2018-03-26T17:07:28.375Z,51.47
2018-03-26T17:09:55.949Z,62.13
2018-03-26T17:12:23.553Z,53.00
2018-03-26T17:14:51.169Z,54.20
2018-03-26T17:17:18.915Z,58.03
2018-03-26T17:19:46.487Z,52.40
2018-03-26T17:22:14.131Z,63.43
2018-03-26T17:24:41.682Z,58.80
2018-03-26T17:27:09.364Z,71.03
2018-03-26T17:29:37.288Z,59.83
2018-03-26T17:32:04.869Z,61.00
2018-03-26T17:34:32.397Z,72.03
2018-03-26T17:36:59.969Z,68.23
2018-03-26T17:39:27.547Z,72.53
2018-03-26T17:41:55.383Z,72.43
2018-03-26T17:44:22.958Z,63.60
2018-03-26T17:46:50.551Z,62.33
2018-03-26T17:49:18.102Z,58.87
2018-03-26T17:51:45.655Z,68.77
2018-03-26T17:54:13.272Z,57.10
2018-03-26T17:56:41.593Z,57.80
2018-03-26T17:59:09.184Z,58.93
2018-03-26T18:01:36.732Z,57.43
2018-03-26T18:04:04.565Z,54.03
2018-03-26T18:06:32.165Z,74.97
2018-03-26T18:09:00.572Z,63.97
2018-03-26T18:11:28.276Z,69.00
2018-03-26T18:13:56.014Z,65.90
2018-03-26T18:16:23.553Z,78.83
2018-03-26T18:18:51.259Z,72.43
2018-03-26T18:21:18.910Z,57.57
2018-03-26T18:23:46.487Z,63.50
2018-03-26T18:26:14.143Z,66.97
2018-03-26T18:28:41.899Z,52.77
2018-03-26T18:31:09.564Z,63.37
2018-03-26T18:33:37.149Z,64.80
2018-03-26T18:36:04.727Z,55.70
2018-03-26T18:38:32.334Z,51.17
2018-03-26T18:40:59.877Z,48.03
2018-03-26T18:43:28.214Z,49.93
2018-03-26T18:45:55.837Z,52.43
2018-03-26T18:48:23.397Z,46.30
2018-03-26T18:50:51.002Z,52.80
2018-03-26T18:53:18.761Z,44.77
2018-03-26T18:55:46.382Z,43.43
2018-03-26T18:58:14.137Z,45.37
2018-03-26T19:00:41.916Z,46.40
2018-03-26T19:03:09.514Z,54.33
2018-03-26T19:05:37.942Z,50.77
2018-03-26T19:08:05.635Z,57.37
2018-03-26T19:10:33.251Z,42.47
2018-03-26T19:13:00.854Z,37.70
2018-03-26T19:15:28.565Z,46.13
2018-03-26T19:17:56.979Z,50.97
2018-03-26T19:20:24.569Z,41.00
2018-03-26T19:22:52.158Z,49.17
2018-03-26T19:25:20.545Z,48.97
2018-03-26T19:27:48.100Z,44.17
2018-03-26T19:30:16.541Z,47.57
2018-03-26T19:32:44.090Z,43.93
2018-03-26T19:35:11.667Z,42.40
2018-03-26T19:37:39.233Z,44.53
2018-03-26T19:40:07.013Z,49.90
2018-03-26T19:42:34.622Z,46.07
2018-03-26T19:45:02.175Z,40.40
2018-03-26T19:47:29.846Z,44.13
2018-03-26T19:49:57.961Z,53.80
2018-03-26T19:52:25.551Z,47.33
2018-03-26T19:54:53.881Z,52.43
2018-03-26T19:57:21.518Z,43.23
2018-03-26T19:59:49.122Z,45.83
2018-03-26T20:02:16.915Z,53.73
2018-03-26T20:04:44.468Z,46.53
2018-03-26T20:07:12.838Z,42.67
2018-03-26T20:09:40.424Z,45.70
2018-03-26T20:12:08.006Z,46.30
2018-03-26T20:14:35.555Z,49.20
2018-03-26T20:17:03.129Z,49.80
2018-03-26T20:19:30.675Z,42.97
2018-03-26T20:21:58.251Z,52.53
2018-03-26T20:24:25.843Z,48.20
2018-03-26T20:26:53.416Z,47.70
2018-03-26T20:29:21.762Z,45.90
2018-03-26T20:31:49.320Z,44.67
2018-03-26T20:34:17.006Z,36.73
2018-03-26T20:36:44.550Z,42.97
2018-03-26T20:39:12.143Z,41.87
2018-03-26T20:41:40.462Z,36.50
2018-03-26T20:44:08.090Z,37.67
2018-03-26T20:46:35.686Z,46.77
2018-03-26T20:49:03.265Z,37.03
2018-03-26T20:51:30.881Z,41.77
2018-03-26T20:53:58.632Z,39.27
2018-03-26T20:56:26.191Z,43.63
2018-03-26T20:58:53.794Z,37.30
2018-03-26T21:01:21.330Z,37.90
2018-03-26T21:03:48.897Z,38.80
2018-03-26T21:06:16.465Z,43.63
2018-03-26T21:08:44.048Z,41.67
2018-03-26T21:11:11.603Z,43.80
2018-03-26T21:13:39.169Z,43.70
2018-03-26T21:16:06.722Z,43.23
2018-03-26T21:18:34.332Z,93.23
2018-03-26T21:21:02.016Z,41.43
2018-03-26T21:23:29.634Z,45.80
2018-03-26T21:25:57.200Z,35.67
2018-03-26T21:28:24.733Z,36.90
2018-03-26T21:30:52.367Z,52.47
2018-03-26T21:33:19.917Z,40.30
2018-03-26T21:35:47.481Z,48.97
2018-03-26T21:38:15.027Z,41.60
2018-03-26T21:40:42.593Z,46.07
2018-03-26T21:43:10.133Z,39.17
2018-03-26T21:45:37.701Z,43.23
2018-03-26T21:48:05.326Z,38.47
2018-03-26T21:50:32.892Z,41.77
2018-03-26T21:53:01.193Z,42.20
2018-03-26T21:55:28.782Z,36.67
2018-03-26T21:57:56.341Z,36.73
2018-03-26T22:00:23.933Z,45.13
2018-03-26T22:02:51.482Z,49.23
2018-03-26T22:05:19.055Z,46.17
2018-03-26T22:07:46.602Z,39.57
2018-03-26T22:10:14.171Z,49.33
2018-03-26T22:12:41.709Z,44.47
2018-03-26T22:15:09.301Z,42.40
2018-03-26T22:17:36.838Z,39.77
2018-03-26T22:20:04.372Z,41.53
2018-03-26T22:22:31.933Z,42.73
2018-03-26T22:24:59.517Z,39.53
2018-03-26T22:27:27.147Z,40.73
2018-03-26T22:29:54.682Z,50.80
2018-03-26T22:32:22.278Z,50.10
2018-03-26T22:34:49.869Z,50.93
2018-03-26T22:37:17.618Z,47.50
2018-03-26T22:39:45.186Z,47.27
2018-03-26T22:42:12.748Z,43.23
2018-03-26T22:44:40.285Z,54.00
2018-03-26T22:47:08.029Z,52.40
2018-03-26T22:49:35.562Z,45.87
2018-03-26T22:52:03.893Z,50.47
2018-03-26T22:54:31.454Z,45.83
2018-03-26T22:56:59.049Z,47.27
2018-03-26T22:59:26.583Z,46.50
2018-03-26T23:01:54.146Z,49.83
2018-03-26T23:04:22.440Z,52.63
2018-03-26T23:06:49.997Z,51.53
2018-03-26T23:09:17.703Z,44.47
2018-03-26T23:11:45.393Z,33.90
2018-03-26T23:14:12.950Z,41.83
2018-03-26T23:16:40.478Z,50.60
2018-03-26T23:19:08.039Z,39.27
2018-03-26T23:21:36.252Z,49.60
2018-03-26T23:24:04.658Z,55.00
2018-03-26T23:26:32.967Z,43.33
2018-03-26T23:29:00.525Z,37.00
2018-03-26T23:31:28.049Z,36.40
2018-03-26T23:33:56.368Z,47.83
2018-03-26T23:36:23.901Z,39.80
2018-03-26T23:38:51.463Z,42.27
2018-03-26T23:41:19.952Z,41.57
2018-03-26T23:43:47.512Z,43.40
2018-03-26T23:46:15.052Z,40.20
2018-03-26T23:48:44.293Z,52.70
2018-03-26T23:51:11.973Z,42.03
2018-03-26T23:53:39.719Z,60.37
2018-03-26T23:56:07.270Z,46.17
2018-03-26T23:58:34.809Z,49.47
